Jersey City — WDB4787 — position and weather

sailwx.info

Track history (hours):
 
Tides and Currents Weather Stations Pressure Air Temp Water Temp Dewpoint Dewpoint Depression Visibility Wind Speed Wind Dir Waves Ship Positions

Jersey City

Owner: PORT IMPERIAL FERRY CORP, WEEHAWKEN, NJ. More information available from US FCC via Universal Licensing System and Coast Guard Vessel Documentation Center.

Last reported at 2018-Feb-20 14:30 UTC. Time now 2018-Jul-16 12:36 UTC.
Position N 40°46' W 074°01'.
Warning: this ship's position is months out of date.

Date/timePositionNaut miles runAvg speedWind from/ knotsBaromVisibWave heightAir tempDewpointWater temp
2018-Feb-20 14:30N 40°46' W 074°01'0 0.0
2018-Feb-20 14:00N 40°46' W 074°01'0 0.0
2018-Feb-20 13:30N 40°46' W 074°01'0 0.0
2018-Feb-20 13:00N 40°46' W 074°01'0 0.0
2018-Feb-20 12:30N 40°46' W 074°01'0 0.0
2018-Feb-20 12:00N 40°46' W 074°01'0 0.0
2018-Feb-20 11:30N 40°46' W 074°01'  
2018-Feb-17 10:11N 40°46' W 074°01'0 0.0
2018-Feb-17 10:00N 40°46' W 074°01'0 0.0
2018-Feb-17 09:30N 40°46' W 074°01'0 0.0
2018-Feb-17 08:59N 40°46' W 074°01'0 0.0
2018-Feb-17 08:31N 40°46' W 074°01'0 0.0
2018-Feb-17 08:01N 40°46' W 074°01'0 0.0
2018-Feb-17 07:30N 40°46' W 074°01'0 0.0
2018-Feb-17 07:00N 40°46' W 074°01'0 0.0
2018-Feb-17 06:31N 40°46' W 074°01'0 0.0
2018-Feb-17 06:00N 40°46' W 074°01'0 0.0
2018-Feb-17 05:31N 40°46' W 074°01'0 0.0
2018-Feb-17 05:01N 40°46' W 074°01'0 0.0
2018-Feb-17 04:30N 40°46' W 074°01'0 0.0
2018-Feb-17 04:01N 40°46' W 074°01'0 0.0
2018-Feb-17 03:30N 40°46' W 074°01'0 0.0
2018-Feb-17 00:05N 40°46' W 074°01'1 9.3
2018-Feb-17 00:01N 40°46' W 074°01'1224.0
2018-Feb-16 23:30N 40°34' W 074°04'2 2.3
2018-Feb-16 22:42N 40°36' W 074°03'523.4
2018-Feb-16 22:31N 40°40' W 074°01'4 8.3
2018-Feb-16 22:00N 40°44' W 074°02'0 0.0
2018-Feb-16 21:30N 40°44' W 074°02'0 0.0
2018-Feb-16 21:00N 40°44' W 074°02'1 2.0
2018-Feb-16 20:30N 40°43' W 074°01'3 5.1
2018-Feb-16 20:00N 40°46' W 074°01'1 1.3
2018-Feb-16 19:30N 40°46' W 074°01'0 0.0
2018-Feb-16 19:00N 40°46' W 074°01'0 0.0
2018-Feb-16 18:30N 40°46' W 074°01'0 0.1
2018-Feb-16 18:00N 40°46' W 074°01'0 0.0
2018-Feb-16 17:30N 40°46' W 074°01'0 0.0
2018-Feb-16 17:00N 40°46' W 074°01'0 0.0
2018-Feb-16 16:30N 40°46' W 074°01'0 0.1
2018-Feb-16 16:00N 40°46' W 074°01'1 1.1
2018-Feb-16 15:30N 40°46' W 074°00'815.7
2018-Feb-16 15:00N 40°38' W 074°03'5 4.9
2018-Feb-16 14:04N 40°34' W 074°04'225.7
2018-Feb-16 14:00N 40°35' W 074°03'1021.2
2018-Feb-16 13:30N 40°46' W 074°00'917.2
2018-Feb-16 13:00N 40°37' W 074°03'5 5.1
2018-Feb-16 12:06N 40°33' W 074°04'326.1
2018-Feb-16 11:58N 40°36' W 074°03'714.2
2018-Feb-16 11:31N 40°42' W 074°00'1223.7
2018-Feb-16 10:59N 40°30' W 074°05'4 4.5
2018-Feb-16 10:08N 40°34' W 074°04'324.5
2018-Feb-16 10:00N 40°37' W 074°03'918.3
2018-Feb-16 09:30N 40°46' W 074°01'0 0.0
2018-Feb-16 01:12N 40°46' W 074°01'0 0.1
2018-Feb-16 01:00N 40°46' W 074°01'4 8.4
2018-Feb-16 00:30N 40°42' W 074°00'3 6.1
2018-Feb-16 00:00N 40°45' W 074°01'0 0.9
2018-Feb-15 23:31N 40°45' W 074°01'3 6.3
2018-Feb-15 23:00N 40°42' W 074°00'3 6.2
2018-Feb-15 22:30N 40°45' W 074°01'3 6.7
2018-Feb-15 22:01N 40°42' W 074°01'1 1.8
2018-Feb-15 21:31N 40°43' W 074°01'4 7.2
2018-Feb-15 20:59N 40°47' W 074°01'4 9.1
2018-Feb-15 20:30N 40°42' W 074°00'4 8.7
2018-Feb-15 20:00N 40°47' W 074°01'0 0.0
2018-Feb-15 19:30N 40°47' W 074°01'0 0.0
2018-Feb-15 19:00N 40°47' W 074°01'0 0.0
2018-Feb-15 18:30N 40°47' W 074°01'0 0.0
2018-Feb-15 18:00N 40°47' W 074°01'0 0.0
2018-Feb-15 17:30N 40°47' W 074°01'0 0.0
2018-Feb-15 17:00N 40°47' W 074°01'0 0.0
2018-Feb-15 16:30N 40°47' W 074°01'0 0.0
2018-Feb-15 16:00N 40°47' W 074°01'0 0.0
2018-Feb-15 15:30N 40°47' W 074°01'5 9.3
2018-Feb-15 15:01N 40°42' W 074°01'3 6.7
2018-Feb-15 14:30N 40°45' W 074°01'1 2.4
2018-Feb-15 14:00N 40°47' W 074°01'3 6.8
2018-Feb-15 13:30N 40°43' W 074°01'1 2.9
2018-Feb-15 13:01N 40°42' W 074°00'4 7.1
2018-Feb-15 12:30N 40°46' W 074°00'1 1.9
2018-Feb-15 12:00N 40°47' W 074°01'3 6.8
2018-Feb-15 11:30N 40°43' W 074°01'3 6.0
2018-Feb-15 11:00N 40°46' W 074°01'0 0.0
2018-Feb-15 04:05N 40°46' W 074°01'113.6
2018-Feb-15 04:00N 40°45' W 074°01'1 1.6
2018-Feb-15 03:30N 40°46' W 074°00'1 1.5
2018-Feb-15 03:00N 40°45' W 074°01'1 1.6
2018-Feb-15 02:30N 40°46' W 074°00'1 1.6
2018-Feb-15 02:00N 40°45' W 074°01'1 1.6
2018-Feb-15 01:30N 40°46' W 074°00'1 1.3
2018-Feb-15 01:00N 40°45' W 074°01'3 6.7
2018-Feb-15 00:31N 40°42' W 074°00'3 5.6
2018-Feb-15 00:00N 40°45' W 074°01'0 0.8
2018-Feb-14 23:30N 40°45' W 074°01'3 6.3
2018-Feb-14 23:00N 40°42' W 074°00'3 6.8
2018-Feb-14 22:30N 40°46' W 074°01'3 6.6
2018-Feb-14 22:01N 40°42' W 074°01'1 1.3
2018-Feb-14 21:31N 40°43' W 074°01'4 7.3
2018-Feb-14 21:00N 40°47' W 074°01'4 9.0
2018-Feb-14 20:31N 40°42' W 074°00'4 8.7
2018-Feb-14 20:00N 40°47' W 074°01'0 0.0
2018-Feb-14 19:30N 40°47' W 074°01'0 0.0
2018-Feb-14 19:00N 40°47' W 074°01'0 0.0
2018-Feb-14 18:30N 40°47' W 074°01'0 0.0
2018-Feb-14 18:00N 40°47' W 074°01'0 0.0
2018-Feb-14 17:30N 40°47' W 074°01'0 0.0
2018-Feb-14 17:00N 40°47' W 074°01'0 0.0
2018-Feb-14 16:30N 40°47' W 074°01'0 0.0
2018-Feb-14 16:00N 40°47' W 074°01'0 0.0
2018-Feb-14 15:30N 40°47' W 074°01'4 8.9
2018-Feb-14 15:01N 40°42' W 074°01'3 5.8
2018-Feb-14 14:31N 40°45' W 074°01'1 2.9
2018-Feb-14 13:59N 40°47' W 074°01'3 6.7
2018-Feb-14 13:30N 40°43' W 074°01'1 2.9
2018-Feb-14 13:00N 40°42' W 074°00'3 5.8
2018-Feb-14 12:30N 40°45' W 074°01'1 3.0
2018-Feb-14 12:00N 40°47' W 074°01'4 7.2
2018-Feb-14 11:30N 40°43' W 074°01'3 0.3
2018-Feb-14 01:06N 40°46' W 074°01'0 0.0
2018-Feb-14 00:59N 40°46' W 074°01'4 8.7
2018-Feb-14 00:30N 40°42' W 074°00'3 6.2
2018-Feb-14 00:00N 40°45' W 074°01'0 0.8
2018-Feb-13 23:31N 40°45' W 074°01'3 5.7
2018-Feb-13 23:00N 40°42' W 074°00'3 6.7
2018-Feb-13 22:30N 40°46' W 074°01'3 5.9
2018-Feb-13 22:00N 40°43' W 074°02'0 0.8
2018-Feb-13 21:31N 40°43' W 074°01'4 7.3
2018-Feb-13 21:00N 40°47' W 074°01'4 9.0
2018-Feb-13 20:31N 40°42' W 074°00'4 8.6
2018-Feb-13 20:00N 40°47' W 074°01'0 0.0
2018-Feb-13 19:30N 40°47' W 074°01'0 0.0
2018-Feb-13 19:00N 40°47' W 074°01'0 0.0
2018-Feb-13 18:30N 40°47' W 074°01'0 0.0
2018-Feb-13 18:00N 40°47' W 074°01'0 0.0
2018-Feb-13 17:30N 40°47' W 074°01'0 0.0
2018-Feb-13 17:00N 40°47' W 074°01'0 0.0
2018-Feb-13 16:30N 40°47' W 074°01'0 0.0
2018-Feb-13 16:00N 40°47' W 074°01'0 0.0
2018-Feb-13 15:30N 40°47' W 074°01'5 9.2
2018-Feb-13 15:01N 40°42' W 074°01'3 5.8
2018-Feb-13 14:30N 40°45' W 074°01'2 3.1
2018-Feb-13 14:00N 40°47' W 074°01'4 7.7
2018-Feb-13 13:30N 40°43' W 074°01'1 2.4
2018-Feb-13 13:01N 40°42' W 074°00'4 7.1
2018-Feb-13 12:30N 40°46' W 074°00'1 1.9
2018-Feb-13 12:00N 40°47' W 074°01'4 7.5
2018-Feb-13 11:31N 40°43' W 074°01'4 0.5
2018-Feb-13 03:55N 40°47' W 074°01'1 2.3
2018-Feb-13 03:30N 40°46' W 074°00'1 1.7
2018-Feb-13 03:00N 40°45' W 074°01'1 1.6
2018-Feb-13 02:30N 40°46' W 074°00'1 1.6
2018-Feb-13 02:00N 40°45' W 074°01'1 1.6
2018-Feb-13 01:29N 40°46' W 074°00'1 1.6
2018-Feb-13 01:00N 40°45' W 074°01'0 0.4
2018-Feb-13 00:30N 40°45' W 074°01'0 0.1
2018-Feb-13 00:00N 40°45' W 074°01'0 0.1
2018-Feb-12 23:30N 40°46' W 074°01'0 0.1
2018-Feb-12 23:00N 40°45' W 074°01'0 0.1
2018-Feb-12 22:30N 40°46' W 074°01'0 0.1
2018-Feb-12 22:00N 40°45' W 074°01'0 0.0
2018-Feb-12 21:31N 40°45' W 074°01'0 0.1
2018-Feb-12 21:00N 40°46' W 074°01'1 1.8
2018-Feb-12 20:30N 40°46' W 074°01'0 0.0
2018-Feb-12 20:00N 40°46' W 074°01'0 0.3
2018-Feb-12 19:30N 40°46' W 074°01'1 1.4
2018-Feb-12 19:00N 40°45' W 074°01'1 1.5
2018-Feb-12 18:30N 40°46' W 074°00'1 1.6
2018-Feb-12 18:00N 40°45' W 074°01'1 1.5
2018-Feb-12 17:30N 40°46' W 074°00'1 1.5
2018-Feb-12 17:00N 40°45' W 074°01'1 1.5
2018-Feb-12 16:30N 40°46' W 074°00'1 1.5
2018-Feb-12 16:00N 40°45' W 074°01'1 1.5
2018-Feb-12 15:30N 40°46' W 074°00'0 0.0
2018-Feb-12 15:00N 40°46' W 074°00'1 1.9
2018-Feb-12 14:30N 40°47' W 074°01'0 0.1
2018-Feb-12 14:00N 40°47' W 074°01'0 0.0
2018-Feb-12 13:30N 40°47' W 074°01'0 0.0
2018-Feb-12 13:00N 40°47' W 074°01'0 0.0
2018-Feb-12 12:30N 40°47' W 074°01'0 0.0
2018-Feb-12 11:59N 40°47' W 074°01'0 0.6
2018-Feb-12 11:30N 40°46' W 074°00'0 0.6
2018-Feb-12 11:01N 40°47' W 074°01'0 0.0
2018-Feb-10 20:15N 40°47' W 074°01'0 0.1
2018-Feb-10 20:00N 40°47' W 074°01'1 1.7
2018-Feb-10 19:28N 40°46' W 074°00'1 1.7
2018-Feb-10 19:00N 40°47' W 074°00'  
Track history (hours):
 
Tides and Currents Weather Stations Pressure Air Temp Water Temp Dewpoint Dewpoint Depression Visibility Wind Speed Wind Dir Waves Ship Positions

Jersey City

Owner: PORT IMPERIAL FERRY CORP, WEEHAWKEN, NJ. More information available from US FCC via Universal Licensing System and Coast Guard Vessel Documentation Center.

Last reported at 2018-Feb-20 14:30 UTC. Time now 2018-Jul-16 12:36 UTC.
Position N 40°46' W 074°01'.
Warning: this ship's position is months out of date.

Date/timePositionNaut miles runAvg speedWind from/ knotsBaromVisibWave heightAir tempDewpointWater temp
2018-Feb-20 14:30N 40°46' W 074°01'0 0.0
2018-Feb-20 14:00N 40°46' W 074°01'0 0.0
2018-Feb-20 13:30N 40°46' W 074°01'0 0.0
2018-Feb-20 13:00N 40°46' W 074°01'0 0.0
2018-Feb-20 12:30N 40°46' W 074°01'0 0.0
2018-Feb-20 12:00N 40°46' W 074°01'0 0.0
2018-Feb-20 11:30N 40°46' W 074°01'  
2018-Feb-17 10:11N 40°46' W 074°01'0 0.0
2018-Feb-17 10:00N 40°46' W 074°01'0 0.0
2018-Feb-17 09:30N 40°46' W 074°01'0 0.0
2018-Feb-17 08:59N 40°46' W 074°01'0 0.0
2018-Feb-17 08:31N 40°46' W 074°01'0 0.0
2018-Feb-17 08:01N 40°46' W 074°01'0 0.0
2018-Feb-17 07:30N 40°46' W 074°01'0 0.0
2018-Feb-17 07:00N 40°46' W 074°01'0 0.0
2018-Feb-17 06:31N 40°46' W 074°01'0 0.0
2018-Feb-17 06:00N 40°46' W 074°01'0 0.0
2018-Feb-17 05:31N 40°46' W 074°01'0 0.0
2018-Feb-17 05:01N 40°46' W 074°01'0 0.0
2018-Feb-17 04:30N 40°46' W 074°01'0 0.0
2018-Feb-17 04:01N 40°46' W 074°01'0 0.0
2018-Feb-17 03:30N 40°46' W 074°01'0 0.0
2018-Feb-17 00:05N 40°46' W 074°01'1 9.3
2018-Feb-17 00:01N 40°46' W 074°01'1224.0
2018-Feb-16 23:30N 40°34' W 074°04'2 2.3
2018-Feb-16 22:42N 40°36' W 074°03'523.4
2018-Feb-16 22:31N 40°40' W 074°01'4 8.3
2018-Feb-16 22:00N 40°44' W 074°02'0 0.0
2018-Feb-16 21:30N 40°44' W 074°02'0 0.0
2018-Feb-16 21:00N 40°44' W 074°02'1 2.0
2018-Feb-16 20:30N 40°43' W 074°01'3 5.1
2018-Feb-16 20:00N 40°46' W 074°01'1 1.3
2018-Feb-16 19:30N 40°46' W 074°01'0 0.0
2018-Feb-16 19:00N 40°46' W 074°01'0 0.0
2018-Feb-16 18:30N 40°46' W 074°01'0 0.1
2018-Feb-16 18:00N 40°46' W 074°01'0 0.0
2018-Feb-16 17:30N 40°46' W 074°01'0 0.0
2018-Feb-16 17:00N 40°46' W 074°01'0 0.0
2018-Feb-16 16:30N 40°46' W 074°01'0 0.1
2018-Feb-16 16:00N 40°46' W 074°01'1 1.1
2018-Feb-16 15:30N 40°46' W 074°00'815.7
2018-Feb-16 15:00N 40°38' W 074°03'5 4.9
2018-Feb-16 14:04N 40°34' W 074°04'225.7
2018-Feb-16 14:00N 40°35' W 074°03'1021.2
2018-Feb-16 13:30N 40°46' W 074°00'917.2
2018-Feb-16 13:00N 40°37' W 074°03'5 5.1
2018-Feb-16 12:06N 40°33' W 074°04'326.1
2018-Feb-16 11:58N 40°36' W 074°03'714.2
2018-Feb-16 11:31N 40°42' W 074°00'1223.7
2018-Feb-16 10:59N 40°30' W 074°05'4 4.5
2018-Feb-16 10:08N 40°34' W 074°04'324.5
2018-Feb-16 10:00N 40°37' W 074°03'918.3
2018-Feb-16 09:30N 40°46' W 074°01'0 0.0
2018-Feb-16 01:12N 40°46' W 074°01'0 0.1
2018-Feb-16 01:00N 40°46' W 074°01'4 8.4
2018-Feb-16 00:30N 40°42' W 074°00'3 6.1
2018-Feb-16 00:00N 40°45' W 074°01'0 0.9
2018-Feb-15 23:31N 40°45' W 074°01'3 6.3
2018-Feb-15 23:00N 40°42' W 074°00'3 6.2
2018-Feb-15 22:30N 40°45' W 074°01'3 6.7
2018-Feb-15 22:01N 40°42' W 074°01'1 1.8
2018-Feb-15 21:31N 40°43' W 074°01'4 7.2
2018-Feb-15 20:59N 40°47' W 074°01'4 9.1
2018-Feb-15 20:30N 40°42' W 074°00'4 8.7
2018-Feb-15 20:00N 40°47' W 074°01'0 0.0
2018-Feb-15 19:30N 40°47' W 074°01'0 0.0
2018-Feb-15 19:00N 40°47' W 074°01'0 0.0
2018-Feb-15 18:30N 40°47' W 074°01'0 0.0
2018-Feb-15 18:00N 40°47' W 074°01'0 0.0
2018-Feb-15 17:30N 40°47' W 074°01'0 0.0
2018-Feb-15 17:00N 40°47' W 074°01'0 0.0
2018-Feb-15 16:30N 40°47' W 074°01'0 0.0
2018-Feb-15 16:00N 40°47' W 074°01'0 0.0
2018-Feb-15 15:30N 40°47' W 074°01'5 9.3
2018-Feb-15 15:01N 40°42' W 074°01'3 6.7
2018-Feb-15 14:30N 40°45' W 074°01'1 2.4
2018-Feb-15 14:00N 40°47' W 074°01'3 6.8
2018-Feb-15 13:30N 40°43' W 074°01'1 2.9
2018-Feb-15 13:01N 40°42' W 074°00'4 7.1
2018-Feb-15 12:30N 40°46' W 074°00'1 1.9
2018-Feb-15 12:00N 40°47' W 074°01'3 6.8
2018-Feb-15 11:30N 40°43' W 074°01'3 6.0
2018-Feb-15 11:00N 40°46' W 074°01'0 0.0
2018-Feb-15 04:05N 40°46' W 074°01'113.6
2018-Feb-15 04:00N 40°45' W 074°01'1 1.6
2018-Feb-15 03:30N 40°46' W 074°00'1 1.5
2018-Feb-15 03:00N 40°45' W 074°01'1 1.6
2018-Feb-15 02:30N 40°46' W 074°00'1 1.6
2018-Feb-15 02:00N 40°45' W 074°01'1 1.6
2018-Feb-15 01:30N 40°46' W 074°00'1 1.3
2018-Feb-15 01:00N 40°45' W 074°01'3 6.7
2018-Feb-15 00:31N 40°42' W 074°00'3 5.6
2018-Feb-15 00:00N 40°45' W 074°01'0 0.8
2018-Feb-14 23:30N 40°45' W 074°01'3 6.3
2018-Feb-14 23:00N 40°42' W 074°00'3 6.8
2018-Feb-14 22:30N 40°46' W 074°01'3 6.6
2018-Feb-14 22:01N 40°42' W 074°01'1 1.3
2018-Feb-14 21:31N 40°43' W 074°01'4 7.3
2018-Feb-14 21:00N 40°47' W 074°01'4 9.0
2018-Feb-14 20:31N 40°42' W 074°00'4 8.7
2018-Feb-14 20:00N 40°47' W 074°01'0 0.0
2018-Feb-14 19:30N 40°47' W 074°01'0 0.0
2018-Feb-14 19:00N 40°47' W 074°01'0 0.0
2018-Feb-14 18:30N 40°47' W 074°01'0 0.0
2018-Feb-14 18:00N 40°47' W 074°01'0 0.0
2018-Feb-14 17:30N 40°47' W 074°01'0 0.0
2018-Feb-14 17:00N 40°47' W 074°01'0 0.0
2018-Feb-14 16:30N 40°47' W 074°01'0 0.0
2018-Feb-14 16:00N 40°47' W 074°01'0 0.0
2018-Feb-14 15:30N 40°47' W 074°01'4 8.9
2018-Feb-14 15:01N 40°42' W 074°01'3 5.8
2018-Feb-14 14:31N 40°45' W 074°01'1 2.9
2018-Feb-14 13:59N 40°47' W 074°01'3 6.7
2018-Feb-14 13:30N 40°43' W 074°01'1 2.9
2018-Feb-14 13:00N 40°42' W 074°00'3 5.8
2018-Feb-14 12:30N 40°45' W 074°01'1 3.0
2018-Feb-14 12:00N 40°47' W 074°01'4 7.2
2018-Feb-14 11:30N 40°43' W 074°01'3 0.3
2018-Feb-14 01:06N 40°46' W 074°01'0 0.0
2018-Feb-14 00:59N 40°46' W 074°01'4 8.7
2018-Feb-14 00:30N 40°42' W 074°00'3 6.2
2018-Feb-14 00:00N 40°45' W 074°01'0 0.8
2018-Feb-13 23:31N 40°45' W 074°01'3 5.7
2018-Feb-13 23:00N 40°42' W 074°00'3 6.7
2018-Feb-13 22:30N 40°46' W 074°01'3 5.9
2018-Feb-13 22:00N 40°43' W 074°02'0 0.8
2018-Feb-13 21:31N 40°43' W 074°01'4 7.3
2018-Feb-13 21:00N 40°47' W 074°01'4 9.0
2018-Feb-13 20:31N 40°42' W 074°00'4 8.6
2018-Feb-13 20:00N 40°47' W 074°01'0 0.0
2018-Feb-13 19:30N 40°47' W 074°01'0 0.0
2018-Feb-13 19:00N 40°47' W 074°01'0 0.0
2018-Feb-13 18:30N 40°47' W 074°01'0 0.0
2018-Feb-13 18:00N 40°47' W 074°01'0 0.0
2018-Feb-13 17:30N 40°47' W 074°01'0 0.0
2018-Feb-13 17:00N 40°47' W 074°01'0 0.0
2018-Feb-13 16:30N 40°47' W 074°01'0 0.0
2018-Feb-13 16:00N 40°47' W 074°01'0 0.0
2018-Feb-13 15:30N 40°47' W 074°01'5 9.2
2018-Feb-13 15:01N 40°42' W 074°01'3 5.8
2018-Feb-13 14:30N 40°45' W 074°01'2 3.1
2018-Feb-13 14:00N 40°47' W 074°01'4 7.7
2018-Feb-13 13:30N 40°43' W 074°01'1 2.4
2018-Feb-13 13:01N 40°42' W 074°00'4 7.1
2018-Feb-13 12:30N 40°46' W 074°00'1 1.9
2018-Feb-13 12:00N 40°47' W 074°01'4 7.5
2018-Feb-13 11:31N 40°43' W 074°01'4 0.5
2018-Feb-13 03:55N 40°47' W 074°01'1 2.3
2018-Feb-13 03:30N 40°46' W 074°00'1 1.7
2018-Feb-13 03:00N 40°45' W 074°01'1 1.6
2018-Feb-13 02:30N 40°46' W 074°00'1 1.6
2018-Feb-13 02:00N 40°45' W 074°01'1 1.6
2018-Feb-13 01:29N 40°46' W 074°00'1 1.6
2018-Feb-13 01:00N 40°45' W 074°01'0 0.4
2018-Feb-13 00:30N 40°45' W 074°01'0 0.1
2018-Feb-13 00:00N 40°45' W 074°01'0 0.1
2018-Feb-12 23:30N 40°46' W 074°01'0 0.1
2018-Feb-12 23:00N 40°45' W 074°01'0 0.1
2018-Feb-12 22:30N 40°46' W 074°01'0 0.1
2018-Feb-12 22:00N 40°45' W 074°01'0 0.0
2018-Feb-12 21:31N 40°45' W 074°01'0 0.1
2018-Feb-12 21:00N 40°46' W 074°01'1 1.8
2018-Feb-12 20:30N 40°46' W 074°01'0 0.0
2018-Feb-12 20:00N 40°46' W 074°01'0 0.3
2018-Feb-12 19:30N 40°46' W 074°01'1 1.4
2018-Feb-12 19:00N 40°45' W 074°01'1 1.5
2018-Feb-12 18:30N 40°46' W 074°00'1 1.6
2018-Feb-12 18:00N 40°45' W 074°01'1 1.5
2018-Feb-12 17:30N 40°46' W 074°00'1 1.5
2018-Feb-12 17:00N 40°45' W 074°01'1 1.5
2018-Feb-12 16:30N 40°46' W 074°00'1 1.5
2018-Feb-12 16:00N 40°45' W 074°01'1 1.5
2018-Feb-12 15:30N 40°46' W 074°00'0 0.0
2018-Feb-12 15:00N 40°46' W 074°00'1 1.9
2018-Feb-12 14:30N 40°47' W 074°01'0 0.1
2018-Feb-12 14:00N 40°47' W 074°01'0 0.0
2018-Feb-12 13:30N 40°47' W 074°01'0 0.0
2018-Feb-12 13:00N 40°47' W 074°01'0 0.0
2018-Feb-12 12:30N 40°47' W 074°01'0 0.0
2018-Feb-12 11:59N 40°47' W 074°01'0 0.6
2018-Feb-12 11:30N 40°46' W 074°00'0 0.6
2018-Feb-12 11:01N 40°47' W 074°01'0 0.0
2018-Feb-10 20:15N 40°47' W 074°01'0 0.1
2018-Feb-10 20:00N 40°47' W 074°01'1 1.7
2018-Feb-10 19:28N 40°46' W 074°00'1 1.7
2018-Feb-10 19:00N 40°47' W 074°00'  

Dump ship's entire track history